Time;durP1;ratioP1;P1;durP2;ratioP2;P2;SDS_P1;SDS_P2;PMS_P1;PMS_P2;Temp;Humidity;BMP_temperature;BMP_pressure;BME280_temperature;BME280_humidity;BME280_pressure;Samples;Min_cycle;Max_cycle;Signal;HPM_P1;HPM_P2
2021/12/10 00:01:49;;;;;;;82.65;25.23;;;5.70;93.40;;;;;;5071492;28;20128;-84
2021/12/10 00:04:17;;;;;;;81.25;27.75;;;5.70;93.40;;;;;;5054142;28;20081;-83
2021/12/10 00:06:54;;;;;;;79.85;25.52;;;5.70;93.30;;;;;;5052261;28;20095;-83
2021/12/10 00:09:27;;;;;;;76.60;25.25;;;5.80;93.30;;;;;;5086545;28;20113;-84
2021/12/10 00:12:00;;;;;;;74.20;26.70;;;5.80;93.30;;;;;;5067522;28;20087;-83
2021/12/10 00:14:30;;;;;;;82.70;25.95;;;5.80;93.30;;;;;;5061028;28;20061;-83
2021/12/10 00:16:56;;;;;;;80.50;25.30;;;5.80;93.20;;;;;;5062023;28;20091;-84
2021/12/10 00:19:33;;;;;;;76.10;26.23;;;5.80;93.20;;;;;;5081667;28;20119;-83
2021/12/10 00:22:05;;;;;;;90.97;26.30;;;5.80;93.20;;;;;;5039407;28;20068;-84
2021/12/10 00:24:31;;;;;;;83.05;25.30;;;5.80;93.20;;;;;;5073007;28;20535;-83
2021/12/10 00:26:59;;;;;;;77.90;27.05;;;5.80;93.20;;;;;;5032591;28;20094;-83
2021/12/10 00:29:25;;;;;;;75.53;25.30;;;5.80;93.20;;;;;;5069360;28;20471;-83
2021/12/10 00:32:01;;;;;;;77.85;24.80;;;5.80;93.20;;;;;;5051183;28;20162;-83
2021/12/10 00:34:33;;;;;;;70.85;25.13;;;5.80;93.20;;;;;;5073789;28;20054;-83
2021/12/10 00:37:02;;;;;;;61.92;22.75;;;5.80;93.10;;;;;;5048129;28;20067;-83
2021/12/10 00:39:32;;;;;;;68.05;23.63;;;5.70;93.00;;;;;;5044528;28;20144;-83
2021/12/10 00:42:00;;;;;;;82.20;25.10;;;5.70;93.00;;;;;;5065866;28;20087;-83
2021/12/10 00:44:26;;;;;;;67.10;24.75;;;5.60;93.10;;;;;;5051317;28;20550;-83
2021/12/10 00:46:52;;;;;;;63.53;23.60;;;5.60;93.30;;;;;;5053543;28;20089;-83
2021/12/10 00:49:18;;;;;;;70.80;22.40;;;5.60;93.00;;;;;;5072118;28;20107;-83
2021/12/10 00:51:44;;;;;;;78.47;23.17;;;5.50;92.90;;;;;;5054051;28;20110;-83
2021/12/10 00:54:11;;;;;;;66.03;22.90;;;5.50;93.00;;;;;;5052682;28;20091;-83
2021/12/10 00:56:38;;;;;;;61.20;21.30;;;5.50;93.00;;;;;;5047785;28;20068;-83
2021/12/10 00:59:04;;;;;;;69.57;23.95;;;5.40;93.00;;;;;;5032863;28;20085;-83
2021/12/10 01:01:32;;;;;;;61.70;21.55;;;5.40;93.40;;;;;;5053269;28;20482;-83
2021/12/10 01:04:04;;;;;;;65.75;22.30;;;5.40;93.00;;;;;;5038897;28;20079;-83
2021/12/10 01:06:30;;;;;;;;;;;5.40;93.00;;;;;;5049961;28;20072;-83
2021/12/10 01:09:00;;;;;;;74.35;22.88;;;5.40;93.00;;;;;;5034923;28;19958;-83
2021/12/10 01:11:33;;;;;;;64.30;22.02;;;5.30;92.90;;;;;;5064731;28;20426;-83
2021/12/10 01:14:12;;;;;;;68.50;23.00;;;5.30;93.00;;;;;;5058656;28;20487;-83
2021/12/10 01:27:33;;;;;;;58.53;18.58;;;5.40;93.10;;;;;;5072297;28;20081;-83
2021/12/10 01:30:09;;;;;;;68.03;21.95;;;5.30;93.00;;;;;;5033034;28;20065;-83
2021/12/10 01:32:38;;;;;;;68.07;20.50;;;5.40;93.10;;;;;;5065123;28;20081;-83
2021/12/10 01:35:07;;;;;;;65.78;20.67;;;5.40;93.10;;;;;;5050421;28;20071;-83
2021/12/10 01:37:33;;;;;;;53.13;19.33;;;5.40;93.10;;;;;;5055165;28;20064;-83
2021/12/10 01:40:00;;;;;;;52.60;18.88;;;5.40;93.10;;;;;;5068958;28;20536;-83
2021/12/10 01:44:56;;;;;;;54.58;18.27;;;5.50;93.00;;;;;;5061417;28;20082;-83
2021/12/10 01:47:27;;;;;;;52.95;18.77;;;5.50;93.00;;;;;;5054413;28;20073;-83
2021/12/10 01:49:54;;;;;;;49.42;17.83;;;5.50;93.00;;;;;;5051198;28;20071;-83
2021/12/10 01:52:20;;;;;;;59.35;19.70;;;5.50;92.90;;;;;;5039123;28;20093;-83
2021/12/10 01:54:51;;;;;;;58.78;19.98;;;5.50;92.90;;;;;;5045610;28;20080;-83
2021/12/10 01:57:18;;;;;;;54.15;18.85;;;5.50;92.90;;;;;;5059932;28;20068;-83
2021/12/10 01:59:46;;;;;;;54.42;19.13;;;5.50;92.90;;;;;;5039718;28;20563;-83
2021/12/10 02:02:19;;;;;;;49.67;17.60;;;5.60;92.90;;;;;;5070862;28;20151;-83
2021/12/10 02:04:46;;;;;;;55.63;18.80;;;5.50;92.90;;;;;;5070703;28;20079;-83
2021/12/10 02:07:16;;;;;;;56.03;19.70;;;5.50;92.80;;;;;;5051360;28;20075;-83
2021/12/10 02:09:42;;;;;;;56.22;18.55;;;5.60;92.90;;;;;;5054113;28;20081;-83
2021/12/10 02:12:08;;;;;;;51.88;19.48;;;5.60;92.90;;;;;;5040750;28;20178;-83
2021/12/10 02:14:34;;;;;;;51.00;17.98;;;5.60;92.80;;;;;;5068618;28;20132;-83
2021/12/10 02:17:00;;;;;;;54.92;19.48;;;5.60;92.80;;;;;;5072208;28;20161;-83
2021/12/10 02:19:27;;;;;;;51.13;19.60;;;5.60;92.80;;;;;;5046502;28;20076;-83
2021/12/10 02:21:54;;;;;;;59.58;19.27;;;5.70;92.80;;;;;;5065899;28;20078;-83
2021/12/10 02:24:20;;;;;;;59.67;20.65;;;5.60;92.80;;;;;;5039360;28;20831;-83
2021/12/10 02:26:56;;;;;;;58.80;18.17;;;5.60;92.80;;;;;;5061969;28;20546;-83
2021/12/10 02:29:24;;;;;;;58.28;22.33;;;5.60;92.70;;;;;;5072478;28;20075;-83
2021/12/10 02:31:50;;;;;;;62.03;19.55;;;5.70;92.80;;;;;;5074825;28;20087;-83
2021/12/10 02:34:16;;;;;;;48.00;19.77;;;5.70;92.70;;;;;;5073223;28;20515;-83
2021/12/10 02:36:42;;;;;;;34.10;12.60;;;5.60;93.10;;;;;;5071959;28;20117;-83
2021/12/10 02:39:14;;;;;;;58.55;19.08;;;5.70;92.70;;;;;;5059503;28;20546;-83
2021/12/10 02:41:40;;;;;;;48.00;18.63;;;5.60;93.00;;;;;;5068866;28;20649;-83
2021/12/10 02:44:10;;;;;;;52.05;19.35;;;5.60;92.60;;;;;;5039112;28;20509;-83
2021/12/10 02:46:36;;;;;;;43.85;18.63;;;5.60;92.60;;;;;;5054045;28;20419;-83
2021/12/10 02:49:04;;;;;;;45.55;17.85;;;5.70;92.60;;;;;;5055241;28;20500;-83
2021/12/10 02:51:32;;;;;;;47.92;17.10;;;5.60;92.50;;;;;;5077162;28;20131;-84
2021/12/10 02:53:58;;;;;;;42.20;17.27;;;5.60;92.40;;;;;;5056194;28;20062;-83
2021/12/10 02:56:24;;;;;;;41.45;16.48;;;5.60;92.30;;;;;;5028769;28;20066;-83
2021/12/10 02:58:53;;;;;;;42.90;17.63;;;5.60;92.30;;;;;;5043729;28;20151;-83
2021/12/10 03:01:36;;;;;;;41.83;17.10;;;5.60;92.30;;;;;;5057010;28;20094;-84
2021/12/10 03:04:03;;;;;;;41.60;15.52;;;5.60;92.10;;;;;;5076541;28;20094;-83
2021/12/10 03:06:30;;;;;;;42.75;17.02;;;5.60;92.10;;;;;;5075820;28;20067;-83
2021/12/10 03:08:57;;;;;;;43.00;15.68;;;5.60;92.10;;;;;;5040208;28;20073;-83
2021/12/10 03:11:27;;;;;;;49.85;17.05;;;5.50;92.10;;;;;;5054663;28;20539;-83
2021/12/10 03:13:54;;;;;;;53.10;16.98;;;5.50;92.10;;;;;;5054493;28;20099;-84
2021/12/10 03:16:20;;;;;;;48.72;16.98;;;5.60;92.00;;;;;;5075332;28;20431;-83
2021/12/10 03:18:46;;;;;;;38.25;16.20;;;5.50;92.00;;;;;;5052945;28;20077;-83
2021/12/10 03:21:13;;;;;;;44.45;16.35;;;5.50;92.00;;;;;;5077301;28;20067;-83
2021/12/10 03:23:44;;;;;;;34.15;15.15;;;5.50;91.90;;;;;;5056290;28;20062;-83
2021/12/10 03:26:12;;;;;;;37.83;15.25;;;5.50;91.90;;;;;;5044378;28;20064;-82
2021/12/10 03:28:40;;;;;;;37.33;14.60;;;5.50;91.90;;;;;;5054851;28;20073;-83
2021/12/10 03:31:07;;;;;;;38.13;16.17;;;5.50;91.90;;;;;;5075943;28;20070;-83
2021/12/10 03:33:34;;;;;;;35.13;13.75;;;5.50;91.90;;;;;;5035133;28;20084;-83
2021/12/10 03:36:00;;;;;;;40.85;16.33;;;5.40;91.80;;;;;;5075507;28;20071;-83
2021/12/10 03:38:27;;;;;;;43.90;15.65;;;5.40;91.80;;;;;;5075983;28;20061;-83
2021/12/10 03:40:53;;;;;;;42.78;15.35;;;5.40;91.80;;;;;;5038778;28;20110;-83
2021/12/10 03:43:20;;;;;;;42.42;14.45;;;5.40;91.80;;;;;;5029222;28;20421;-83
2021/12/10 03:45:52;;;;;;;42.35;14.85;;;5.40;91.90;;;;;;5048665;28;20072;-83
2021/12/10 03:48:24;;;;;;;48.60;15.27;;;5.30;91.70;;;;;;5076473;28;20082;-83
2021/12/10 03:50:50;;;;;;;40.13;14.48;;;5.30;91.80;;;;;;5058462;28;20109;-83
2021/12/10 03:53:17;;;;;;;39.00;14.82;;;5.30;91.80;;;;;;5073229;28;20080;-83
2021/12/10 03:55:44;;;;;;;42.85;15.07;;;5.20;91.70;;;;;;5061592;28;20063;-83
2021/12/10 03:58:10;;;;;;;39.47;14.80;;;5.20;91.70;;;;;;5056801;28;20162;-83
2021/12/10 04:00:43;;;;;;;43.92;14.77;;;5.20;91.70;;;;;;5058511;28;20074;-83
2021/12/10 04:03:09;;;;;;;36.45;14.40;;;5.10;91.60;;;;;;5071856;28;20349;-83
2021/12/10 04:05:35;;;;;;;40.28;15.32;;;5.10;91.70;;;;;;5041248;28;20103;-83
2021/12/10 04:08:00;;;;;;;33.83;13.48;;;5.00;92.10;;;;;;5074172;28;20069;-83
2021/12/10 04:10:27;;;;;;;41.80;14.23;;;5.00;91.70;;;;;;5062017;28;20572;-83
2021/12/10 04:12:54;;;;;;;42.40;14.70;;;5.00;91.70;;;;;;5044481;28;20167;-84
2021/12/10 04:15:22;;;;;;;41.72;16.15;;;4.90;91.70;;;;;;5057606;28;20077;-83
2021/12/10 04:17:52;;;;;;;34.65;14.40;;;4.80;91.70;;;;;;5058187;28;20494;-83
2021/12/10 04:20:19;;;;;;;40.90;14.60;;;4.80;91.70;;;;;;5075314;28;20592;-83
2021/12/10 04:22:46;;;;;;;39.63;14.80;;;4.80;91.70;;;;;;5042755;28;20099;-83
2021/12/10 04:25:16;;;;;;;45.50;16.55;;;4.70;91.70;;;;;;5057680;28;20578;-83
2021/12/10 04:27:44;;;;;;;32.78;14.50;;;4.70;91.70;;;;;;5066235;28;20146;-83
2021/12/10 04:30:12;;;;;;;45.70;16.73;;;4.60;91.70;;;;;;5059595;28;20073;-83
2021/12/10 04:32:38;;;;;;;40.95;15.73;;;4.60;91.70;;;;;;5057149;28;20080;-83
2021/12/10 04:35:05;;;;;;;40.50;16.05;;;4.60;91.80;;;;;;5054076;28;20068;-83
2021/12/10 04:37:30;;;;;;;39.20;16.20;;;4.50;91.70;;;;;;5056961;28;20764;-83
2021/12/10 04:39:56;;;;;;;40.58;15.50;;;4.50;91.80;;;;;;5075130;28;20061;-83
2021/12/10 04:42:24;;;;;;;47.53;15.93;;;4.50;91.80;;;;;;5057601;28;20491;-83
2021/12/10 04:44:56;;;;;;;46.08;16.98;;;4.50;91.80;;;;;;5052880;28;20160;-83
2021/12/10 04:47:22;;;;;;;;;;;4.40;91.80;;;;;;5059677;28;20073;-83
2021/12/10 04:49:48;;;;;;;40.28;15.13;;;4.40;91.80;;;;;;5053920;28;19969;-83
2021/12/10 04:52:14;;;;;;;42.67;15.13;;;4.40;91.80;;;;;;5033771;28;20630;-83
2021/12/10 04:54:39;;;;;;;46.80;16.55;;;4.30;91.70;;;;;;5034745;28;20086;-83
2021/12/10 04:57:05;;;;;;;39.75;15.43;;;4.30;91.80;;;;;;5024799;28;20070;-83
2021/12/10 04:59:33;;;;;;;52.58;17.35;;;4.20;91.80;;;;;;5061977;28;20152;-83
2021/12/10 05:02:00;;;;;;;52.45;16.77;;;4.20;91.80;;;;;;5026781;28;20091;-82
2021/12/10 05:04:28;;;;;;;44.92;17.67;;;4.20;91.90;;;;;;5045840;28;20120;-83
2021/12/10 05:06:55;;;;;;;52.30;17.80;;;4.20;91.90;;;;;;5051710;28;20496;-84
2021/12/10 05:09:22;;;;;;;57.47;20.38;;;4.10;91.90;;;;;;5061928;28;20641;-84
2021/12/10 05:11:49;;;;;;;59.35;21.45;;;4.10;92.00;;;;;;5065166;28;20091;-83
2021/12/10 05:14:16;;;;;;;56.92;21.50;;;4.10;92.00;;;;;;5049754;28;20070;-83
2021/12/10 05:16:45;;;;;;;47.53;18.40;;;4.10;92.10;;;;;;5041463;28;20073;-83
2021/12/10 05:19:14;;;;;;;60.80;20.48;;;4.10;92.10;;;;;;5050677;28;20419;-83
2021/12/10 05:21:41;;;;;;;53.55;20.55;;;4.00;92.10;;;;;;5062439;28;20082;-83
2021/12/10 05:24:08;;;;;;;63.70;21.85;;;4.00;92.10;;;;;;5046297;28;20078;-83
2021/12/10 05:26:35;;;;;;;65.93;21.17;;;4.00;92.20;;;;;;5049116;28;20152;-83
2021/12/10 05:29:01;;;;;;;57.60;22.05;;;3.90;92.10;;;;;;5048068;28;20075;-83
2021/12/10 05:31:27;;;;;;;50.33;19.05;;;4.00;92.20;;;;;;5047428;28;20129;-83
2021/12/10 05:33:53;;;;;;;48.75;18.50;;;3.90;92.20;;;;;;5062833;28;20086;-83
2021/12/10 05:36:19;;;;;;;50.60;20.23;;;3.90;92.20;;;;;;5036328;28;20067;-83
2021/12/10 05:38:45;;;;;;;56.00;20.20;;;3.90;92.20;;;;;;5046857;28;20180;-84
2021/12/10 05:41:11;;;;;;;55.47;19.58;;;3.90;92.20;;;;;;5042707;28;20581;-84
2021/12/10 05:43:42;;;;;;;55.58;20.83;;;3.90;92.30;;;;;;5042793;28;20100;-84
2021/12/10 05:46:09;;;;;;;50.75;18.83;;;3.90;92.30;;;;;;5030316;28;20564;-85
2021/12/10 05:48:35;;;;;;;54.20;19.05;;;3.80;92.30;;;;;;5050706;28;20562;-85
2021/12/10 05:51:05;;;;;;;55.25;19.77;;;3.80;92.30;;;;;;5040022;28;20125;-84
2021/12/10 05:53:30;;;;;;;50.63;19.70;;;3.80;92.30;;;;;;5033888;28;20141;-85
2021/12/10 05:55:57;;;;;;;54.97;20.85;;;3.80;92.30;;;;;;5016400;28;20540;-84
2021/12/10 05:58:23;;;;;;;39.10;15.15;;;3.80;92.30;;;;;;5023805;28;20561;-84
2021/12/10 06:00:54;;;;;;;48.63;18.95;;;3.80;92.30;;;;;;5018161;28;20104;-85
2021/12/10 06:03:22;;;;;;;48.35;18.77;;;3.80;92.30;;;;;;5036024;28;20162;-85
2021/12/10 06:05:48;;;;;;;49.47;18.05;;;3.80;92.30;;;;;;5016086;28;20165;-84
2021/12/10 06:08:14;;;;;;;50.20;19.27;;;3.70;92.30;;;;;;5038398;28;20162;-85
2021/12/10 06:10:40;;;;;;;41.80;17.17;;;3.70;92.30;;;;;;5017424;28;20071;-85
2021/12/10 06:13:07;;;;;;;51.17;18.38;;;3.70;92.30;;;;;;5018275;28;20112;-85
2021/12/10 06:15:33;;;;;;;45.22;17.50;;;3.70;92.30;;;;;;5018055;28;20078;-85
2021/12/10 06:17:59;;;;;;;37.80;15.32;;;3.70;92.30;;;;;;5019915;28;20071;-85
2021/12/10 06:20:29;;;;;;;45.78;18.02;;;3.70;92.30;;;;;;5035525;28;20442;-82
2021/12/10 06:22:55;;;;;;;39.40;17.52;;;3.70;92.30;;;;;;5035723;28;20071;-80
2021/12/10 06:25:21;;;;;;;43.25;15.23;;;3.60;92.30;;;;;;5027825;28;20440;-81
2021/12/10 06:27:47;;;;;;;42.33;16.08;;;3.60;92.20;;;;;;5034389;28;20066;-85
2021/12/10 06:30:17;;;;;;;49.20;18.10;;;3.60;92.30;;;;;;5019744;28;20086;-82
2021/12/10 06:32:45;;;;;;;43.67;17.38;;;3.60;92.30;;;;;;5044575;28;20086;-85
2021/12/10 06:35:12;;;;;;;43.45;16.77;;;3.60;92.30;;;;;;5024984;28;20158;-84
2021/12/10 06:37:39;;;;;;;42.78;15.75;;;3.60;92.30;;;;;;5032324;28;20448;-84
2021/12/10 06:40:07;;;;;;;45.03;15.18;;;3.60;92.20;;;;;;5043837;28;20433;-84
2021/12/10 06:42:33;;;;;;;39.05;16.13;;;3.60;92.20;;;;;;5052662;28;20079;-83
2021/12/10 06:44:59;;;;;;;41.80;15.75;;;3.50;92.20;;;;;;5014904;28;20471;-84
2021/12/10 06:47:25;;;;;;;40.22;15.52;;;3.50;92.20;;;;;;5035892;28;20085;-84
2021/12/10 06:49:51;;;;;;;40.95;16.88;;;3.50;92.20;;;;;;5020456;28;20075;-87
2021/12/10 06:52:17;;;;;;;42.85;17.20;;;3.50;92.20;;;;;;5031290;28;20582;-86
2021/12/10 06:54:43;;;;;;;44.83;15.85;;;3.50;92.20;;;;;;5036917;28;20446;-86
2021/12/10 06:57:09;;;;;;;38.17;14.18;;;3.50;92.20;;;;;;5022090;28;20140;-86
2021/12/10 06:59:35;;;;;;;38.53;14.07;;;3.50;92.20;;;;;;5017891;28;20070;-87
2021/12/10 07:02:01;;;;;;;38.45;14.65;;;3.50;92.20;;;;;;5040919;28;20074;-86
2021/12/10 07:04:26;;;;;;;32.95;15.00;;;3.40;92.20;;;;;;5015809;28;20165;-84
2021/12/10 07:06:53;;;;;;;40.67;15.82;;;3.40;92.20;;;;;;5038611;28;20098;-86
2021/12/10 07:09:23;;;;;;;39.80;14.63;;;3.40;92.20;;;;;;5020422;28;20456;-86
2021/12/10 07:11:51;;;;;;;34.80;13.60;;;3.40;92.20;;;;;;5036877;28;20091;-88
2021/12/10 07:14:17;;;;;;;37.25;13.48;;;3.40;92.20;;;;;;5040942;28;20079;-87
2021/12/10 07:16:45;;;;;;;38.33;13.70;;;3.40;92.60;;;;;;5020597;28;20082;-86
2021/12/10 07:19:11;;;;;;;40.35;15.30;;;3.40;92.20;;;;;;5053127;28;20492;-85
2021/12/10 07:21:37;;;;;;;34.45;12.93;;;3.30;92.10;;;;;;5038555;28;20140;-84
2021/12/10 07:24:07;;;;;;;37.78;14.65;;;3.30;92.20;;;;;;5044591;28;20069;-84
2021/12/10 07:26:34;;;;;;;33.30;13.60;;;3.30;92.20;;;;;;5040204;28;20062;-84
2021/12/10 07:29:00;;;;;;;37.78;13.43;;;3.30;92.20;;;;;;5010739;28;20085;-84
2021/12/10 07:31:27;;;;;;;34.28;12.95;;;3.30;92.20;;;;;;5035696;28;20594;-80
2021/12/10 07:33:54;;;;;;;33.47;13.23;;;3.30;92.20;;;;;;5021304;28;20106;-82
2021/12/10 07:36:22;;;;;;;41.28;12.90;;;3.30;92.20;;;;;;5057577;28;20074;-80
2021/12/10 07:38:48;;;;;;;38.05;13.82;;;3.30;92.20;;;;;;5038295;28;20116;-80
2021/12/10 07:41:14;;;;;;;49.22;17.13;;;3.20;92.10;;;;;;5043114;28;20086;-88
2021/12/10 07:43:41;;;;;;;50.92;17.38;;;3.20;92.10;;;;;;5038542;28;20075;-88
2021/12/10 07:46:07;;;;;;;44.53;15.13;;;3.20;92.10;;;;;;5045758;28;20070;-89
2021/12/10 07:48:35;;;;;;;75.78;26.27;;;3.20;92.10;;;;;;5027258;28;20102;-90
2021/12/10 07:51:09;;;;;;;58.28;17.65;;;3.20;92.10;;;;;;5035000;28;20118;-80
2021/12/10 07:53:36;;;;;;;48.88;16.73;;;3.20;92.10;;;;;;5046684;28;20172;-82
2021/12/10 07:56:04;;;;;;;51.03;20.02;;;3.20;92.10;;;;;;5074298;28;20149;-82
2021/12/10 07:58:31;;;;;;;55.55;17.17;;;3.20;92.10;;;;;;5052666;28;20075;-82
2021/12/10 08:00:57;;;;;;;49.92;20.92;;;3.20;92.10;;;;;;5055945;28;20067;-83
2021/12/10 08:03:23;;;;;;;46.45;20.77;;;3.20;92.10;;;;;;5057772;28;20081;-83
2021/12/10 08:05:50;;;;;;;35.15;13.25;;;3.20;92.10;;;;;;5039413;28;20087;-83
2021/12/10 08:08:15;;;;;;;37.30;16.00;;;3.20;92.10;;;;;;5049188;28;20084;-83
2021/12/10 08:10:43;;;;;;;44.42;17.13;;;3.20;92.10;;;;;;5033559;28;20077;-84
2021/12/10 08:13:09;;;;;;;53.30;22.38;;;3.20;92.10;;;;;;5058282;28;20545;-83
2021/12/10 08:15:35;;;;;;;34.95;13.25;;;3.20;92.10;;;;;;5039602;28;20126;-83
2021/12/10 08:18:01;;;;;;;37.65;16.52;;;3.20;92.10;;;;;;5050251;28;20082;-82
2021/12/10 08:20:27;;;;;;;31.58;12.70;;;3.20;92.10;;;;;;5069797;28;20123;-82
2021/12/10 08:22:54;;;;;;;37.85;13.23;;;3.20;92.10;;;;;;5037393;28;20135;-83
2021/12/10 08:25:21;;;;;;;36.42;13.25;;;3.20;92.00;;;;;;5069731;28;20173;-82
2021/12/10 08:27:49;;;;;;;31.42;12.75;;;3.20;92.00;;;;;;5022885;28;20202;-85
2021/12/10 08:30:18;;;;;;;37.60;16.15;;;3.20;92.00;;;;;;5056641;28;20102;-85
2021/12/10 08:32:44;;;;;;;113.97;36.90;;;3.20;92.00;;;;;;5053691;28;20121;-87
2021/12/10 08:35:14;;;;;;;30.70;12.45;;;3.20;92.00;;;;;;5053608;28;20171;-87
2021/12/10 08:37:41;;;;;;;72.45;24.20;;;3.30;92.10;;;;;;5047265;28;20074;-83
2021/12/10 08:40:09;;;;;;;40.13;12.85;;;3.30;92.10;;;;;;5051485;28;20077;-84
2021/12/10 08:42:36;;;;;;;73.40;24.88;;;3.30;92.10;;;;;;5047781;28;20086;-80
2021/12/10 08:45:03;;;;;;;81.35;24.77;;;3.30;92.00;;;;;;5047651;28;20165;-82
2021/12/10 08:47:28;;;;;;;35.53;13.65;;;3.30;92.00;;;;;;5055134;28;20077;-85
2021/12/10 08:49:54;;;;;;;54.92;24.77;;;3.30;92.00;;;;;;5038535;28;20086;-86
2021/12/10 08:52:20;;;;;;;45.25;16.60;;;3.30;92.00;;;;;;5057832;28;20117;-78
2021/12/10 08:54:46;;;;;;;49.05;22.67;;;3.30;92.00;;;;;;5052839;28;20082;-81
2021/12/10 08:57:13;;;;;;;34.83;14.95;;;3.30;92.00;;;;;;5069453;28;20440;-82
2021/12/10 08:59:40;;;;;;;38.22;15.45;;;3.30;92.00;;;;;;5068008;28;20170;-83
2021/12/10 09:02:09;;;;;;;40.67;18.40;;;3.30;92.40;;;;;;5037731;28;20549;-83
2021/12/10 09:04:36;;;;;;;33.13;13.70;;;3.40;92.10;;;;;;5066732;28;20075;-82
2021/12/10 09:07:06;;;;;;;36.55;14.20;;;3.40;92.50;;;;;;5047178;28;20140;-82
2021/12/10 09:09:35;;;;;;;37.20;19.07;;;3.40;92.10;;;;;;5076925;28;20074;-82
2021/12/10 09:12:04;;;;;;;38.72;20.60;;;3.40;92.10;;;;;;5051197;28;20097;-82
2021/12/10 09:14:39;;;;;;;34.25;12.35;;;3.40;92.10;;;;;;5071966;28;20101;-83
2021/12/10 09:17:05;;;;;;;29.98;13.00;;;3.40;92.10;;;;;;5047987;28;20091;-81
2021/12/10 09:19:31;;;;;;;24.75;11.68;;;3.50;92.10;;;;;;5044059;28;20086;-84
2021/12/10 09:21:57;;;;;;;29.20;11.95;;;3.50;92.10;;;;;;5033812;28;20071;-81
2021/12/10 09:24:24;;;;;;;35.60;12.35;;;3.50;92.10;;;;;;5049847;28;20540;-82
2021/12/10 09:26:56;;;;;;;32.03;11.80;;;3.60;92.10;;;;;;5048886;28;20162;-82
2021/12/10 09:29:23;;;;;;;27.90;12.90;;;3.60;92.10;;;;;;5050224;28;20494;-82
2021/12/10 09:31:50;;;;;;;26.55;11.35;;;3.70;92.10;;;;;;5051447;28;20094;-82
2021/12/10 09:34:17;;;;;;;31.45;11.93;;;3.70;92.10;;;;;;5029752;28;20106;-82
2021/12/10 09:36:44;;;;;;;23.33;10.13;;;3.80;92.10;;;;;;5072455;28;20476;-82
2021/12/10 09:39:12;;;;;;;28.10;10.82;;;3.80;92.00;;;;;;5050740;28;20081;-82
2021/12/10 09:41:38;;;;;;;19.38;9.40;;;3.80;92.00;;;;;;5036528;28;20702;-81
2021/12/10 09:44:07;;;;;;;23.00;9.30;;;3.80;91.90;;;;;;5045417;28;20096;-81
2021/12/10 09:46:33;;;;;;;22.17;9.93;;;3.80;91.90;;;;;;5049870;28;20450;-81
2021/12/10 09:48:59;;;;;;;21.13;8.30;;;3.90;92.00;;;;;;5047090;28;20078;-82
2021/12/10 09:51:34;;;;;;;25.88;9.73;;;3.90;91.90;;;;;;5048519;28;20121;-84
2021/12/10 09:54:05;;;;;;;25.98;9.00;;;3.90;91.90;;;;;;5047130;28;20065;-81
2021/12/10 09:56:30;;;;;;;23.02;8.85;;;4.00;91.80;;;;;;5046300;28;20077;-80
2021/12/10 09:58:57;;;;;;;22.02;8.00;;;4.00;91.80;;;;;;5031755;28;20083;-76
2021/12/10 10:01:25;;;;;;;22.17;8.77;;;4.10;92.20;;;;;;5044952;28;20075;-81
2021/12/10 10:03:59;;;;;;;21.00;7.82;;;4.10;91.80;;;;;;5047097;28;20078;-81
2021/12/10 10:06:25;;;;;;;21.58;7.72;;;4.10;91.80;;;;;;5047911;28;20126;-83
2021/12/10 10:08:52;;;;;;;18.65;7.45;;;4.20;91.80;;;;;;5035034;28;20086;-86
2021/12/10 10:11:23;;;;;;;21.42;8.15;;;4.20;91.80;;;;;;5048964;28;20081;-84
2021/12/10 10:13:51;;;;;;;21.33;8.23;;;4.30;91.70;;;;;;5051098;28;20168;-89
2021/12/10 10:16:17;;;;;;;17.35;7.18;;;4.30;91.70;;;;;;5033054;28;20073;-88
2021/12/10 10:18:45;;;;;;;19.25;7.82;;;4.40;91.70;;;;;;5033870;28;20146;-89
2021/12/10 10:21:25;;;;;;;15.00;6.28;;;4.40;91.60;;;;;;5050258;28;20674;-83
2021/12/10 10:23:51;;;;;;;22.58;8.20;;;4.50;91.60;;;;;;5051033;28;20058;-86
2021/12/10 10:26:31;;;;;;;15.82;7.00;;;4.50;91.50;;;;;;5050397;28;20086;-83
2021/12/10 10:29:17;;;;;;;18.35;7.47;;;4.60;91.50;;;;;;5043848;28;20089;-83
2021/12/10 10:31:51;;;;;;;13.55;6.68;;;4.60;91.40;;;;;;5046918;28;20151;-80
2021/12/10 10:34:18;;;;;;;16.50;7.10;;;4.70;91.30;;;;;;5053720;28;20072;-76
2021/12/10 10:36:45;;;;;;;19.85;7.45;;;4.70;91.30;;;;;;5069804;28;20428;-87
2021/12/10 10:39:18;;;;;;;21.65;7.22;;;4.80;91.30;;;;;;5032995;28;20095;-85
2021/12/10 10:41:47;;;;;;;15.15;5.75;;;4.80;91.30;;;;;;5069971;28;20154;-84
2021/12/10 10:44:15;;;;;;;15.90;6.05;;;4.90;91.30;;;;;;5054950;28;20135;-84
2021/12/10 10:46:41;;;;;;;15.27;6.10;;;5.00;91.30;;;;;;5022577;28;20074;-88
2021/12/10 10:49:07;;;;;;;15.10;6.57;;;5.10;91.10;;;;;;5053687;28;20065;-86
2021/12/10 10:51:38;;;;;;;23.38;7.70;;;5.20;91.00;;;;;;5049281;28;20107;-80
2021/12/10 10:54:09;;;;;;;16.77;7.03;;;5.20;90.80;;;;;;5054105;28;20070;-84
2021/12/10 10:56:42;;;;;;;13.75;6.15;;;5.20;90.70;;;;;;5046178;28;20057;-85
2021/12/10 10:59:17;;;;;;;15.05;5.25;;;5.20;90.70;;;;;;5054136;28;20075;-83
2021/12/10 11:01:59;;;;;;;19.33;6.57;;;5.30;90.70;;;;;;5049826;28;20150;-84
2021/12/10 11:04:40;;;;;;;15.90;6.60;;;5.30;90.50;;;;;;5056008;28;20466;-83
2021/12/10 11:07:25;;;;;;;16.05;7.07;;;5.30;90.40;;;;;;5034789;28;20120;-83
2021/12/10 11:10:02;;;;;;;17.58;7.68;;;5.30;90.40;;;;;;5049445;28;20156;-84
2021/12/10 11:12:34;;;;;;;12.30;5.60;;;5.30;90.30;;;;;;5049318;28;20083;-85
2021/12/10 11:15:06;;;;;;;18.83;7.28;;;5.30;90.20;;;;;;5053612;28;20065;-83
2021/12/10 11:17:58;;;;;;;21.23;7.25;;;5.40;90.20;;;;;;5076559;28;20070;-82
2021/12/10 11:20:29;;;;;;;18.00;6.88;;;5.40;90.30;;;;;;5068958;28;20625;-87
2021/12/10 11:23:00;;;;;;;19.75;8.45;;;5.40;90.30;;;;;;5048499;28;20089;-84
2021/12/10 11:25:39;;;;;;;19.80;8.50;;;5.50;90.20;;;;;;5054948;28;20085;-83
2021/12/10 11:28:16;;;;;;;19.75;9.95;;;5.50;90.00;;;;;;5054183;28;20518;-82
2021/12/10 11:30:47;;;;;;;18.50;8.57;;;5.50;90.00;;;;;;5069160;28;20072;-82
2021/12/10 11:33:19;;;;;;;17.63;6.68;;;5.50;90.00;;;;;;5050462;28;20611;-83
2021/12/10 11:35:54;;;;;;;13.52;6.45;;;5.50;90.00;;;;;;5050872;28;20534;-88
2021/12/10 11:38:29;;;;;;;21.13;7.60;;;5.50;89.80;;;;;;5046621;28;20067;-84
2021/12/10 11:41:08;;;;;;;17.27;7.20;;;5.60;89.90;;;;;;5052062;28;20141;-83
2021/12/10 11:43:54;;;;;;;16.38;6.35;;;5.60;89.90;;;;;;5051807;28;20072;-85
2021/12/10 11:48:57;;;;;;;22.02;9.70;;;5.60;89.50;;;;;;5069978;28;20143;-84
2021/12/10 11:51:43;;;;;;;22.65;8.73;;;5.60;89.70;;;;;;5053224;28;20575;-85
2021/12/10 11:54:15;;;;;;;19.10;8.68;;;5.60;89.30;;;;;;5048857;28;20070;-84
2021/12/10 11:56:44;;;;;;;16.52;6.78;;;5.60;89.10;;;;;;5053048;28;20079;-85
2021/12/10 11:59:28;;;;;;;13.77;5.80;;;5.60;89.10;;;;;;5044289;28;20065;-84
2021/12/10 12:01:59;;;;;;;11.20;5.15;;;5.60;88.70;;;;;;5048694;28;20703;-84
2021/12/10 12:04:51;;;;;;;10.48;4.65;;;5.60;88.80;;;;;;5058989;28;20076;-84
2021/12/10 12:07:33;;;;;;;13.05;4.57;;;5.60;88.70;;;;;;5050069;28;20551;-84
2021/12/10 12:10:02;;;;;;;15.95;6.20;;;5.60;88.70;;;;;;5054273;28;20064;-84
2021/12/10 12:12:48;;;;;;;17.95;6.03;;;5.50;88.40;;;;;;5051509;28;20103;-85
2021/12/10 12:15:18;;;;;;;16.65;7.13;;;5.50;88.30;;;;;;5048701;28;20060;-84
2021/12/10 12:17:51;;;;;;;20.48;6.55;;;5.50;88.40;;;;;;5053176;28;20158;-84
2021/12/10 12:20:31;;;;;;;14.43;5.30;;;5.50;88.40;;;;;;5049111;28;20081;-84
2021/12/10 12:26:15;;;;;;;12.07;3.90;;;5.50;88.10;;;;;;5070857;28;20148;-86
2021/12/10 12:28:51;;;;;;;18.77;5.28;;;5.50;88.00;;;;;;5041370;28;20520;-86
2021/12/10 12:31:27;;;;;;;16.20;4.10;;;5.50;88.10;;;;;;5046111;28;20083;-84
2021/12/10 12:34:21;;;;;;;13.27;5.13;;;5.50;88.10;;;;;;5046244;28;20451;-84
2021/12/10 12:37:02;;;;;;;12.52;4.43;;;5.50;87.90;;;;;;5052001;28;20158;-85
2021/12/10 12:39:41;;;;;;;14.40;6.33;;;5.50;87.70;;;;;;5050815;28;20080;-84
2021/12/10 12:42:16;;;;;;;15.70;5.22;;;5.50;87.70;;;;;;5049746;28;20316;-84
2021/12/10 12:44:43;;;;;;;12.05;4.82;;;5.50;87.60;;;;;;5047367;28;20441;-84
2021/12/10 12:47:17;;;;;;;12.85;5.05;;;5.50;87.80;;;;;;5047531;28;20075;-85
2021/12/10 12:49:49;;;;;;;17.60;4.82;;;5.50;87.80;;;;;;5054032;28;20131;-85
2021/12/10 12:52:18;;;;;;;13.70;4.85;;;5.40;87.60;;;;;;5051588;28;20124;-82
2021/12/10 12:55:20;;;;;;;11.95;5.05;;;5.40;87.70;;;;;;5048359;28;20089;-83
2021/12/10 12:58:27;;;;;;;12.68;4.60;;;5.40;87.70;;;;;;5048266;28;20506;-81
2021/12/10 13:01:20;;;;;;;16.60;4.70;;;5.40;87.70;;;;;;5044105;28;20156;-81
2021/12/10 13:03:54;;;;;;;14.55;5.80;;;5.40;87.70;;;;;;5045260;28;20162;-82
2021/12/10 13:06:30;;;;;;;14.98;5.93;;;5.40;87.60;;;;;;5053793;28;20053;-82
2021/12/10 13:09:09;;;;;;;15.25;5.20;;;5.40;87.70;;;;;;5043176;28;20071;-82
2021/12/10 13:11:57;;;;;;;24.92;7.80;;;5.40;87.80;;;;;;5048558;28;20118;-82